createdAt,value
2019-03-17T00:00:34.378Z,94965.19
2019-03-17T00:03:01.035Z,94976.73
2019-03-17T00:05:27.746Z,94966.78
2019-03-17T00:07:54.430Z,94965.91
2019-03-17T00:10:21.061Z,94960.14
2019-03-17T00:12:47.768Z,94954.84
2019-03-17T00:15:14.412Z,94956.08
2019-03-17T00:17:41.973Z,94951.84
2019-03-17T00:20:07.712Z,94957.73
2019-03-17T00:22:34.367Z,94960.20
2019-03-17T00:25:09.343Z,94951.67
2019-03-17T00:27:27.699Z,94961.59
2019-03-17T00:29:54.333Z,94957.42
2019-03-17T00:32:20.975Z,94956.23
2019-03-17T00:34:47.624Z,94958.89
2019-03-17T00:37:14.277Z,94956.72
2019-03-17T00:39:40.915Z,94959.34
2019-03-17T00:42:07.571Z,94952.48
2019-03-17T00:44:34.211Z,94950.23
2019-03-17T00:47:00.927Z,94950.78
2019-03-17T00:49:27.501Z,94949.02
2019-03-17T00:51:54.181Z,94957.51
2019-03-17T00:54:20.836Z,94953.94
2019-03-17T00:56:47.471Z,94952.49
2019-03-17T00:59:15.866Z,94947.45
2019-03-17T01:01:40.825Z,94948.20
2019-03-17T01:04:07.532Z,94952.00
2019-03-17T01:06:34.171Z,94948.48
2019-03-17T01:09:00.879Z,94937.85
2019-03-17T01:11:27.528Z,94939.94
2019-03-17T01:13:54.182Z,94938.80
2019-03-17T01:16:20.854Z,94941.80
2019-03-17T01:18:47.496Z,94939.22
2019-03-17T01:21:14.232Z,94949.56
2019-03-17T01:23:40.873Z,94953.63
2019-03-17T01:26:07.560Z,94955.88
2019-03-17T01:28:34.196Z,94959.95
2019-03-17T01:31:00.878Z,94961.34
2019-03-17T01:33:27.519Z,94956.95
2019-03-17T01:35:54.197Z,94960.91
2019-03-17T01:38:20.871Z,94965.77
2019-03-17T01:40:47.543Z,94964.81
2019-03-17T01:43:14.183Z,94972.03
2019-03-17T01:45:40.836Z,94972.47
2019-03-17T01:48:07.522Z,94967.16
2019-03-17T01:50:34.202Z,94964.44
2019-03-17T01:53:00.878Z,94966.78
2019-03-17T01:55:27.520Z,94965.97
2019-03-17T01:57:54.163Z,94969.08
2019-03-17T02:00:20.842Z,94980.90
2019-03-17T02:02:47.476Z,94975.57
2019-03-17T02:05:21.880Z,94983.80
2019-03-17T02:07:40.776Z,94978.87
2019-03-17T02:10:07.454Z,94977.02
2019-03-17T02:12:34.206Z,94975.13
2019-03-17T02:15:00.876Z,94972.17
2019-03-17T02:17:27.523Z,94963.63
2019-03-17T02:19:54.192Z,94961.91
2019-03-17T02:22:22.269Z,94958.11
2019-03-17T02:24:47.545Z,94965.06
2019-03-17T02:27:14.187Z,94974.00
2019-03-17T02:29:40.829Z,94978.03
2019-03-17T02:32:07.467Z,94981.97
2019-03-17T02:34:34.153Z,94974.69
2019-03-17T02:37:00.867Z,94980.00
2019-03-17T02:39:27.506Z,94978.98
2019-03-17T02:41:54.141Z,94982.55
2019-03-17T02:44:20.792Z,94990.42
2019-03-17T02:46:47.567Z,95004.49
2019-03-17T02:49:14.211Z,95014.14
2019-03-17T02:51:40.868Z,95016.48
2019-03-17T02:54:07.520Z,95019.72
2019-03-17T02:56:34.223Z,95021.67
2019-03-17T02:59:00.874Z,95019.02
2019-03-17T03:01:27.551Z,95024.03
2019-03-17T03:03:54.204Z,95029.91
2019-03-17T03:06:20.844Z,95038.25
2019-03-17T03:08:47.532Z,95042.50
2019-03-17T03:11:14.209Z,95040.66
2019-03-17T03:13:40.900Z,95043.81
2019-03-17T03:16:07.598Z,95038.42
2019-03-17T03:18:34.234Z,95053.09
2019-03-17T03:21:00.918Z,95051.41
2019-03-17T03:23:27.536Z,95049.93
2019-03-17T03:25:54.218Z,95046.52
2019-03-17T03:28:20.874Z,95048.42
2019-03-17T03:30:47.509Z,95046.53
2019-03-17T03:33:14.238Z,95049.06
2019-03-17T03:35:40.862Z,95053.05
2019-03-17T03:38:07.501Z,95054.94
2019-03-17T03:40:34.161Z,95044.38
2019-03-17T03:43:00.842Z,95044.23
2019-03-17T03:45:27.527Z,95035.56
2019-03-17T03:47:54.162Z,95035.94
2019-03-17T03:50:20.806Z,95029.50
2019-03-17T03:52:47.450Z,95031.22
2019-03-17T03:55:14.131Z,95038.02
2019-03-17T03:57:40.817Z,95044.92
2019-03-17T04:00:07.488Z,95041.31
2019-03-17T04:02:34.166Z,95043.58
2019-03-17T04:05:00.789Z,95043.59
2019-03-17T04:07:27.475Z,95046.45
2019-03-17T04:09:54.119Z,95041.57
2019-03-17T04:12:20.773Z,95042.70
2019-03-17T04:14:47.416Z,95041.43
2019-03-17T04:17:14.058Z,95055.27
2019-03-17T04:19:40.754Z,95059.27
2019-03-17T04:22:07.390Z,95058.14
2019-03-17T04:24:34.161Z,95062.46
2019-03-17T04:27:00.696Z,95063.14
2019-03-17T04:29:27.387Z,95065.23
2019-03-17T04:31:54.031Z,95065.02
2019-03-17T04:34:20.681Z,95059.25
2019-03-17T04:36:47.317Z,95071.88
2019-03-17T04:39:13.976Z,95078.06
2019-03-17T04:41:40.612Z,95076.31
2019-03-17T04:44:07.249Z,95080.58
2019-03-17T04:46:33.908Z,95082.75
2019-03-17T04:49:00.571Z,95083.80
2019-03-17T04:51:27.247Z,95078.61
2019-03-17T04:53:53.889Z,95075.52
2019-03-17T04:56:20.525Z,95080.69
2019-03-17T04:58:47.179Z,95084.17
2019-03-17T05:01:13.814Z,95087.09
2019-03-17T05:03:40.604Z,95090.80
2019-03-17T05:06:07.293Z,95098.95
2019-03-17T05:08:33.945Z,95102.34
2019-03-17T05:11:00.623Z,95096.33
2019-03-17T05:13:27.258Z,95105.45
2019-03-17T05:15:53.937Z,95101.77
2019-03-17T05:18:20.585Z,95103.81
2019-03-17T05:20:47.301Z,95105.97
2019-03-17T05:23:13.943Z,95104.58
2019-03-17T05:25:40.589Z,95115.84
2019-03-17T05:28:07.227Z,95123.31
2019-03-17T05:30:33.883Z,95120.01
2019-03-17T05:33:00.526Z,95119.98
2019-03-17T05:35:27.222Z,95117.24
2019-03-17T05:37:53.865Z,95114.19
2019-03-17T05:40:20.550Z,95118.02
2019-03-17T05:42:47.201Z,95115.22
2019-03-17T05:45:13.857Z,95115.14
2019-03-17T05:47:40.502Z,95117.71
2019-03-17T05:50:07.155Z,95118.54
2019-03-17T05:52:33.795Z,95126.18
2019-03-17T05:55:00.445Z,95127.94
2019-03-17T05:57:27.094Z,95129.07
2019-03-17T05:59:53.729Z,95119.52
2019-03-17T06:02:20.385Z,95125.15
2019-03-17T06:04:47.155Z,95122.55
2019-03-17T06:07:18.500Z,95128.00
2019-03-17T06:09:40.472Z,95129.92
2019-03-17T06:12:07.079Z,95132.32
2019-03-17T06:14:33.724Z,95137.33
2019-03-17T06:17:00.377Z,95135.50
2019-03-17T06:19:27.029Z,95140.27
2019-03-17T06:21:53.689Z,95137.79
2019-03-17T06:24:20.333Z,95128.79
2019-03-17T06:26:47.032Z,95128.90
2019-03-17T06:29:13.673Z,95138.27
2019-03-17T06:31:40.325Z,95136.38
2019-03-17T06:34:06.977Z,95135.41
2019-03-17T06:36:33.644Z,95133.85
2019-03-17T06:39:00.271Z,95139.48
2019-03-17T06:41:26.929Z,95136.50
2019-03-17T06:43:53.580Z,95145.09
2019-03-17T06:46:20.217Z,95150.39
2019-03-17T06:48:46.906Z,95147.14
2019-03-17T06:51:13.587Z,95140.79
2019-03-17T06:53:40.268Z,95145.59
2019-03-17T06:56:06.909Z,95148.06
2019-03-17T06:58:33.565Z,95148.33
2019-03-17T07:01:00.258Z,95146.32
2019-03-17T07:03:28.373Z,95145.10
2019-03-17T07:05:53.560Z,95147.03
2019-03-17T07:08:20.231Z,95154.27
2019-03-17T07:10:46.911Z,95154.09
2019-03-17T07:13:13.550Z,95154.23
2019-03-17T07:15:40.234Z,95145.74
2019-03-17T07:18:06.878Z,95142.42
2019-03-17T07:20:33.540Z,95145.63
2019-03-17T07:23:00.177Z,95141.80
2019-03-17T07:25:26.865Z,95144.28
2019-03-17T07:27:53.517Z,95144.17
2019-03-17T07:30:20.164Z,95142.84
2019-03-17T07:32:46.849Z,95146.42
2019-03-17T07:35:13.480Z,95137.59
2019-03-17T07:37:40.233Z,95139.34
2019-03-17T07:40:06.805Z,95143.50
2019-03-17T07:42:33.453Z,95144.98
2019-03-17T07:45:00.333Z,95139.08
2019-03-17T07:47:26.786Z,95140.55
2019-03-17T07:49:53.430Z,95144.14
2019-03-17T07:52:20.068Z,95138.97
2019-03-17T07:54:46.721Z,95138.01
2019-03-17T07:57:13.373Z,95138.81
2019-03-17T07:59:40.059Z,95138.72
2019-03-17T08:02:06.704Z,95135.17
2019-03-17T08:04:42.067Z,95138.78
2019-03-17T08:07:00.065Z,95147.36
2019-03-17T08:09:26.720Z,95140.69
2019-03-17T08:11:53.360Z,95140.53
2019-03-17T08:14:20.000Z,95135.66
2019-03-17T08:16:46.649Z,95139.44
2019-03-17T08:19:13.300Z,95129.28
2019-03-17T08:21:39.937Z,95132.26
2019-03-17T08:24:06.594Z,95125.52
2019-03-17T08:26:33.252Z,95127.84
2019-03-17T08:28:59.880Z,95133.89
2019-03-17T08:31:29.371Z,95122.50
2019-03-17T08:33:56.010Z,95125.12
2019-03-17T08:36:22.660Z,95123.27
2019-03-17T08:38:49.297Z,95124.16
2019-03-17T08:41:15.951Z,95122.16
2019-03-17T08:43:53.841Z,95118.83
2019-03-17T08:46:09.256Z,95118.80
2019-03-17T08:48:35.909Z,95116.31
2019-03-17T08:51:02.543Z,95126.39
2019-03-17T08:53:29.189Z,95124.08
2019-03-17T08:55:55.834Z,95118.80
2019-03-17T08:58:22.487Z,95122.67
2019-03-17T09:00:49.122Z,95112.08
2019-03-17T09:03:15.768Z,95108.27
2019-03-17T09:05:42.456Z,95105.69
2019-03-17T09:08:09.074Z,95105.61
2019-03-17T09:10:35.741Z,95104.33
2019-03-17T09:13:04.248Z,95097.34
2019-03-17T09:15:29.040Z,95100.48
2019-03-17T09:17:55.690Z,95102.67
2019-03-17T09:20:22.337Z,95105.30
2019-03-17T09:22:48.984Z,95097.67
2019-03-17T09:25:15.685Z,95089.00
2019-03-17T09:27:42.277Z,95088.55
2019-03-17T09:30:08.922Z,95095.34
2019-03-17T09:32:35.559Z,95088.58
2019-03-17T09:35:02.207Z,95093.06
2019-03-17T09:37:28.877Z,95089.48
2019-03-17T09:39:55.527Z,95086.34
2019-03-17T09:42:22.315Z,95083.17
2019-03-17T09:44:48.957Z,95077.34
2019-03-17T09:47:15.605Z,95061.55
2019-03-17T09:49:42.257Z,95066.73
2019-03-17T09:52:08.907Z,95060.48
2019-03-17T09:54:35.561Z,95065.64
2019-03-17T09:57:02.213Z,95068.89
2019-03-17T09:59:28.863Z,95068.38
2019-03-17T10:01:55.524Z,95058.12
2019-03-17T10:04:22.176Z,95056.78
2019-03-17T10:06:48.834Z,95054.97
2019-03-17T10:09:15.472Z,95055.78
2019-03-17T10:11:42.122Z,95053.33
2019-03-17T10:14:08.769Z,95050.38
2019-03-17T10:16:35.409Z,95050.00
2019-03-17T10:19:02.110Z,95038.87
2019-03-17T10:21:28.767Z,95049.11
2019-03-17T10:23:55.419Z,95039.53
2019-03-17T10:26:22.062Z,95038.49
2019-03-17T10:28:48.702Z,95034.30
2019-03-17T10:31:15.340Z,95034.06
2019-03-17T10:33:42.004Z,95031.95
2019-03-17T10:36:08.640Z,95025.03
2019-03-17T10:38:35.362Z,95027.30
2019-03-17T10:41:01.940Z,95020.05
2019-03-17T10:43:28.577Z,95021.14
2019-03-17T10:45:55.224Z,95014.69
2019-03-17T10:48:21.865Z,95007.59
2019-03-17T10:50:49.762Z,95006.55
2019-03-17T10:53:15.166Z,95011.09
2019-03-17T10:55:41.812Z,95008.52
2019-03-17T10:58:08.458Z,95011.51
2019-03-17T11:00:35.128Z,95009.13
2019-03-17T11:03:01.768Z,95004.81
2019-03-17T11:05:28.411Z,94997.73
2019-03-17T11:07:55.051Z,94994.78
2019-03-17T11:10:21.723Z,94989.15
2019-03-17T11:12:48.370Z,94987.64
2019-03-17T11:15:15.012Z,94987.30
2019-03-17T11:17:41.681Z,94985.31
2019-03-17T11:20:08.316Z,94978.25
2019-03-17T11:22:34.976Z,94972.52
2019-03-17T11:25:01.637Z,94964.05
2019-03-17T11:27:28.289Z,94965.95
2019-03-17T11:29:54.935Z,94960.83
2019-03-17T11:32:21.579Z,94956.13
2019-03-17T11:34:48.223Z,94947.02
2019-03-17T11:37:14.864Z,94943.66
2019-03-17T11:39:41.526Z,94933.83
2019-03-17T11:42:08.171Z,94928.10
2019-03-17T11:44:34.812Z,94924.77
2019-03-17T11:47:01.448Z,94916.00
2019-03-17T11:49:28.202Z,94915.27
2019-03-17T11:51:54.839Z,94913.09
2019-03-17T11:54:21.493Z,94906.00
2019-03-17T11:56:48.131Z,94901.00
2019-03-17T11:59:14.825Z,94903.16
2019-03-17T12:01:41.464Z,94893.23
2019-03-17T12:04:08.147Z,94885.88
2019-03-17T12:06:34.808Z,94881.53
2019-03-17T12:09:04.250Z,94878.07
2019-03-17T12:11:28.106Z,94871.13
2019-03-17T12:13:54.755Z,94874.30
2019-03-17T12:16:21.409Z,94871.82
2019-03-17T12:18:48.052Z,94871.80
2019-03-17T12:21:14.878Z,94871.00
2019-03-17T12:23:41.515Z,94867.09
2019-03-17T12:26:08.214Z,94872.97
2019-03-17T12:28:34.855Z,94863.05
2019-03-17T12:31:02.072Z,94856.16
2019-03-17T12:33:28.137Z,94847.95
2019-03-17T12:35:54.794Z,94849.05
2019-03-17T12:38:21.451Z,94846.87
2019-03-17T12:40:48.091Z,94841.52
2019-03-17T12:43:14.738Z,94840.78
2019-03-17T12:45:41.411Z,94843.52
2019-03-17T12:48:08.063Z,94841.05
2019-03-17T12:50:34.732Z,94847.65
2019-03-17T12:53:01.369Z,94850.81
2019-03-17T12:55:28.003Z,94849.44
2019-03-17T12:57:54.709Z,94847.52
2019-03-17T13:00:21.318Z,94839.12
2019-03-17T13:02:47.976Z,94841.22
2019-03-17T13:05:14.627Z,94837.68
2019-03-17T13:07:41.363Z,94844.30
2019-03-17T13:10:15.697Z,94837.89
2019-03-17T13:12:34.651Z,94831.27
2019-03-17T13:15:01.285Z,94839.42
2019-03-17T13:17:27.935Z,94839.55
2019-03-17T13:19:54.604Z,94835.45
2019-03-17T13:22:21.279Z,94834.39
2019-03-17T13:24:47.965Z,94835.05
2019-03-17T13:27:14.619Z,94825.75
2019-03-17T13:29:41.269Z,94827.48
2019-03-17T13:32:07.952Z,94821.16
2019-03-17T13:34:34.616Z,94822.06
2019-03-17T13:37:01.269Z,94818.66
2019-03-17T13:39:27.956Z,94815.27
2019-03-17T13:41:54.595Z,94808.77
2019-03-17T13:44:21.245Z,94810.28
2019-03-17T13:46:47.927Z,94800.88
2019-03-17T13:49:14.618Z,94800.64
2019-03-17T13:51:41.261Z,94802.63
2019-03-17T13:54:07.916Z,94787.91
2019-03-17T13:56:34.636Z,94792.36
2019-03-17T13:59:01.300Z,94788.42
2019-03-17T14:01:27.987Z,94788.26
2019-03-17T14:03:55.035Z,94780.69
2019-03-17T14:06:21.289Z,94779.48
2019-03-17T14:08:47.974Z,94776.74
2019-03-17T14:11:14.642Z,94776.64
2019-03-17T14:13:41.293Z,94773.50
2019-03-17T14:16:07.991Z,94781.82
2019-03-17T14:18:34.605Z,94766.87
2019-03-17T14:21:01.295Z,94766.87
2019-03-17T14:23:27.945Z,94771.09
2019-03-17T14:25:54.640Z,94769.41
2019-03-17T14:28:21.333Z,94763.91
2019-03-17T14:30:48.002Z,94766.44
2019-03-17T14:33:14.658Z,94766.38
2019-03-17T14:35:41.309Z,94764.77
2019-03-17T14:38:07.994Z,94766.55
2019-03-17T14:40:34.750Z,94768.38
2019-03-17T14:43:01.432Z,94765.48
2019-03-17T14:45:28.127Z,94764.63
2019-03-17T14:47:54.775Z,94763.58
2019-03-17T14:50:21.413Z,94768.50
2019-03-17T14:52:48.078Z,94768.74
2019-03-17T14:55:14.721Z,94763.89
2019-03-17T14:57:41.371Z,94762.96
2019-03-17T15:00:08.032Z,94764.53
2019-03-17T15:02:34.746Z,94759.03
2019-03-17T15:05:01.383Z,94762.87
2019-03-17T15:07:28.024Z,94757.83
2019-03-17T15:09:54.665Z,94761.62
2019-03-17T15:12:21.349Z,94763.95
2019-03-17T15:14:48.001Z,94758.92
2019-03-17T15:17:14.645Z,94759.94
2019-03-17T15:19:41.325Z,94762.23
2019-03-17T15:22:07.966Z,94762.21
2019-03-17T15:24:34.618Z,94758.30
2019-03-17T15:27:01.247Z,94758.36
2019-03-17T15:29:27.897Z,94759.03
2019-03-17T15:31:54.549Z,94756.38
2019-03-17T15:34:21.233Z,94748.95
2019-03-17T15:36:48.086Z,94760.30
2019-03-17T15:39:14.531Z,94754.52
2019-03-17T15:41:41.172Z,94758.45
2019-03-17T15:44:07.819Z,94758.56
2019-03-17T15:46:34.475Z,94759.23
2019-03-17T15:49:01.130Z,94757.08
2019-03-17T15:51:27.853Z,94762.23
2019-03-17T15:53:54.496Z,94764.61
2019-03-17T15:56:21.144Z,94766.84
2019-03-17T15:58:47.806Z,94768.44
2019-03-17T16:01:14.443Z,94770.20
2019-03-17T16:03:41.120Z,94772.73
2019-03-17T16:06:07.767Z,94780.63
2019-03-17T16:08:34.467Z,94774.42
2019-03-17T16:11:01.102Z,94775.41
2019-03-17T16:13:27.778Z,94774.88
2019-03-17T16:15:54.421Z,94780.00
2019-03-17T16:18:23.973Z,94779.55
2019-03-17T16:20:50.697Z,94785.32
2019-03-17T16:23:17.351Z,94780.38
2019-03-17T16:25:44.033Z,94780.32
2019-03-17T16:28:10.766Z,94776.47
2019-03-17T16:30:37.413Z,94784.67
2019-03-17T16:33:04.048Z,94786.07
2019-03-17T16:35:30.735Z,94787.63
2019-03-17T16:37:57.374Z,94786.05
2019-03-17T16:40:24.032Z,94786.16
2019-03-17T16:42:53.404Z,94787.45
2019-03-17T16:45:17.383Z,94789.18
2019-03-17T16:47:44.054Z,94791.89
2019-03-17T16:50:10.684Z,94796.70
2019-03-17T16:52:37.342Z,94790.81
2019-03-17T16:55:03.985Z,94790.36
2019-03-17T16:57:30.686Z,94791.09
2019-03-17T16:59:57.369Z,94794.23
2019-03-17T17:02:24.189Z,94787.63
2019-03-17T17:04:50.846Z,94790.61
2019-03-17T17:07:17.555Z,94791.73
2019-03-17T17:09:44.258Z,94791.52
2019-03-17T17:12:10.923Z,94794.98
2019-03-17T17:14:37.551Z,94797.78
2019-03-17T17:17:04.238Z,94796.94
2019-03-17T17:19:30.921Z,94801.67
2019-03-17T17:21:58.691Z,94809.87
2019-03-17T17:24:24.233Z,94801.77
2019-03-17T17:26:50.890Z,94807.73
2019-03-17T17:29:17.538Z,94815.06
2019-03-17T17:31:44.192Z,94815.06
2019-03-17T17:34:10.860Z,94820.11
2019-03-17T17:36:37.516Z,94821.41
2019-03-17T17:39:04.190Z,94819.15
2019-03-17T17:41:30.829Z,94823.06
2019-03-17T17:43:57.522Z,94817.59
2019-03-17T17:46:24.175Z,94825.67
2019-03-17T17:48:50.842Z,94826.69
2019-03-17T17:51:17.552Z,94830.02
2019-03-17T17:53:44.243Z,94831.90
2019-03-17T17:56:10.923Z,94828.89
2019-03-17T17:58:37.568Z,94825.64
2019-03-17T18:01:04.221Z,94824.89
2019-03-17T18:03:30.861Z,94829.19
2019-03-17T18:05:57.536Z,94828.14
2019-03-17T18:08:24.177Z,94827.09
2019-03-17T18:10:50.828Z,94824.78
2019-03-17T18:13:17.467Z,94826.19
2019-03-17T18:15:44.100Z,94827.28
2019-03-17T18:18:10.744Z,94828.41
2019-03-17T18:20:37.388Z,94832.49
2019-03-17T18:23:04.070Z,94829.70
2019-03-17T18:25:30.717Z,94827.18
2019-03-17T18:27:57.369Z,94824.31
2019-03-17T18:30:24.020Z,94826.23
2019-03-17T18:32:50.725Z,94820.39
2019-03-17T18:35:17.371Z,94825.52
2019-03-17T18:37:43.989Z,94817.48
2019-03-17T18:40:10.640Z,94817.41
2019-03-17T18:42:37.353Z,94814.78
2019-03-17T18:45:03.993Z,94817.22
2019-03-17T18:47:30.650Z,94815.23
2019-03-17T18:49:57.301Z,94804.00
2019-03-17T18:52:23.975Z,94811.51
2019-03-17T18:54:50.619Z,94812.37
2019-03-17T18:57:17.271Z,94813.62
2019-03-17T18:59:43.966Z,94810.95
2019-03-17T19:02:10.617Z,94818.08
2019-03-17T19:04:37.251Z,94818.86
2019-03-17T19:07:03.901Z,94825.52
2019-03-17T19:09:30.550Z,94821.47
2019-03-17T19:11:57.209Z,94827.18
2019-03-17T19:14:23.876Z,94824.90
2019-03-17T19:16:50.530Z,94826.62
2019-03-17T19:19:17.237Z,94828.82
2019-03-17T19:21:43.893Z,94828.17
2019-03-17T19:24:10.545Z,94826.43
2019-03-17T19:26:37.199Z,94818.03
2019-03-17T19:29:03.863Z,94818.05
2019-03-17T19:31:30.514Z,94821.01
2019-03-17T19:33:57.158Z,94820.82
2019-03-17T19:36:23.841Z,94819.05
2019-03-17T19:38:50.520Z,94822.03
2019-03-17T19:41:17.166Z,94822.38
2019-03-17T19:43:43.835Z,94825.35
2019-03-17T19:46:10.477Z,94821.52
2019-03-17T19:48:37.133Z,94821.62
2019-03-17T19:51:03.818Z,94820.01
2019-03-17T19:53:30.462Z,94826.13
2019-03-17T19:55:57.110Z,94831.52
2019-03-17T19:58:23.792Z,94831.59
2019-03-17T20:00:50.501Z,94834.57
2019-03-17T20:03:17.154Z,94830.88
2019-03-17T20:05:43.844Z,94831.48
2019-03-17T20:08:10.489Z,94833.17
2019-03-17T20:10:37.128Z,94841.66
2019-03-17T20:13:11.437Z,94833.72
2019-03-17T20:15:30.522Z,94842.67
2019-03-17T20:17:57.255Z,94842.64
2019-03-17T20:20:23.909Z,94840.50
2019-03-17T20:22:50.542Z,94840.13
2019-03-17T20:25:17.261Z,94839.10
2019-03-17T20:27:43.919Z,94840.95
2019-03-17T20:30:10.535Z,94838.34
2019-03-17T20:32:37.185Z,94839.93
2019-03-17T20:35:03.924Z,94838.45
2019-03-17T20:37:30.611Z,94838.88
2019-03-17T20:39:57.262Z,94830.47
2019-03-17T20:42:23.964Z,94831.61
2019-03-17T20:44:50.640Z,94826.81
2019-03-17T20:47:17.306Z,94827.72
2019-03-17T20:49:44.036Z,94827.27
2019-03-17T20:52:10.674Z,94825.44
2019-03-17T20:54:37.328Z,94829.39
2019-03-17T20:57:03.973Z,94823.97
2019-03-17T20:59:30.610Z,94824.19
2019-03-17T21:01:57.272Z,94818.47
2019-03-17T21:04:23.917Z,94818.61
2019-03-17T21:06:50.558Z,94815.94
2019-03-17T21:09:17.246Z,94808.84
2019-03-17T21:11:43.883Z,94808.59
2019-03-17T21:14:10.521Z,94803.61
2019-03-17T21:16:37.160Z,94800.69
2019-03-17T21:19:03.808Z,94802.22
2019-03-17T21:21:30.449Z,94809.42
2019-03-17T21:23:57.104Z,94806.48
2019-03-17T21:26:23.782Z,94807.55
2019-03-17T21:28:50.425Z,94806.45
2019-03-17T21:31:17.078Z,94806.06
2019-03-17T21:33:43.736Z,94811.73
2019-03-17T21:36:10.380Z,94812.29
2019-03-17T21:38:37.034Z,94811.43
2019-03-17T21:41:07.234Z,94814.38
2019-03-17T21:43:30.378Z,94821.27
2019-03-17T21:45:57.017Z,94823.95
2019-03-17T21:48:24.314Z,94825.34
2019-03-17T21:50:50.957Z,94818.63
2019-03-17T21:53:17.605Z,94822.73
2019-03-17T21:55:44.267Z,94830.16
2019-03-17T21:58:10.954Z,94824.47
2019-03-17T22:00:37.608Z,94831.44
2019-03-17T22:03:04.247Z,94835.25
2019-03-17T22:05:30.901Z,94839.88
2019-03-17T22:07:57.541Z,94838.86
2019-03-17T22:10:24.225Z,94831.11
2019-03-17T22:12:50.870Z,94836.98
2019-03-17T22:15:17.606Z,94832.13
2019-03-17T22:17:44.290Z,94835.81
2019-03-17T22:20:10.982Z,94841.23
2019-03-17T22:22:37.633Z,94828.73
2019-03-17T22:25:04.299Z,94839.36
2019-03-17T22:27:30.952Z,94835.70
2019-03-17T22:29:57.652Z,94829.78
2019-03-17T22:32:24.306Z,94834.47
2019-03-17T22:34:50.952Z,94834.31
2019-03-17T22:37:17.608Z,94834.20
2019-03-17T22:39:44.294Z,94833.06
2019-03-17T22:42:10.969Z,94841.32
2019-03-17T22:44:37.611Z,94833.34
2019-03-17T22:47:04.256Z,94834.16
2019-03-17T22:49:30.892Z,94837.25
2019-03-17T22:51:57.546Z,94832.02
2019-03-17T22:54:24.203Z,94833.89
2019-03-17T22:56:50.859Z,94833.48
2019-03-17T22:59:17.526Z,94826.81
2019-03-17T23:01:44.176Z,94829.26
2019-03-17T23:04:10.870Z,94835.63
2019-03-17T23:06:37.504Z,94838.56
2019-03-17T23:09:04.144Z,94840.34
2019-03-17T23:11:30.790Z,94841.42
2019-03-17T23:13:57.430Z,94841.73
2019-03-17T23:16:24.129Z,94842.14
2019-03-17T23:18:50.768Z,94842.52
2019-03-17T23:21:17.420Z,94848.09
2019-03-17T23:23:44.068Z,94840.78
2019-03-17T23:26:10.710Z,94835.63
2019-03-17T23:28:37.443Z,94842.97
2019-03-17T23:31:04.105Z,94845.61
2019-03-17T23:33:30.786Z,94847.27
2019-03-17T23:35:57.433Z,94850.77
2019-03-17T23:38:27.389Z,94853.17
2019-03-17T23:40:54.063Z,94848.47
2019-03-17T23:43:20.708Z,94854.57
2019-03-17T23:45:47.429Z,94853.55
2019-03-17T23:48:14.074Z,94855.89
2019-03-17T23:50:40.771Z,94853.48
2019-03-17T23:53:07.413Z,94851.38
2019-03-17T23:55:34.108Z,94853.33
2019-03-17T23:58:00.749Z,94854.38
